createdAt,value
2019-05-07T00:01:42.842Z,100275.81
2019-05-07T00:06:46.444Z,100280.80
2019-05-07T00:11:49.983Z,100283.20
2019-05-07T00:16:53.660Z,100281.08
2019-05-07T00:21:57.204Z,100277.72
2019-05-07T00:27:02.802Z,100283.24
2019-05-07T00:32:06.128Z,100288.72
2019-05-07T00:37:13.083Z,100289.80
2019-05-07T00:42:34.792Z,100293.55
2019-05-07T00:47:38.340Z,100295.77
2019-05-07T00:52:42.995Z,100290.11
2019-05-07T00:57:46.786Z,100299.44
2019-05-07T01:02:52.527Z,100304.89
2019-05-07T01:07:56.263Z,100318.14
2019-05-07T01:12:59.843Z,100317.77
2019-05-07T01:18:03.405Z,100306.79
2019-05-07T01:23:07.287Z,100306.79
2019-05-07T01:28:13.025Z,100311.67
2019-05-07T01:33:34.063Z,100320.03
2019-05-07T01:38:37.627Z,100322.71
2019-05-07T01:43:42.961Z,100310.05
2019-05-07T01:48:46.642Z,100307.28
2019-05-07T01:53:52.375Z,100309.23
2019-05-07T01:58:55.698Z,100299.06
2019-05-07T02:04:03.762Z,100300.78
2019-05-07T02:09:13.048Z,100303.26
2019-05-07T02:14:16.689Z,100300.60
2019-05-07T02:19:22.024Z,100305.26
2019-05-07T02:24:25.712Z,100302.53
2019-05-07T02:29:29.277Z,100306.37
2019-05-07T02:34:34.355Z,100307.38
2019-05-07T02:39:39.787Z,100303.94
2019-05-07T02:45:04.404Z,100307.17
2019-05-07T02:50:18.932Z,100313.47
2019-05-07T02:55:27.269Z,100314.50
2019-05-07T03:00:33.376Z,100314.67
2019-05-07T03:05:36.162Z,100314.42
2019-05-07T03:10:39.733Z,100314.82
2019-05-07T03:15:43.872Z,100313.10
2019-05-07T03:20:55.117Z,100314.02
2019-05-07T03:26:06.007Z,100312.31
2019-05-07T03:31:15.934Z,100313.20
2019-05-07T03:36:17.639Z,100312.84
2019-05-07T03:41:22.866Z,100319.91
2019-05-07T03:46:26.442Z,100317.60
2019-05-07T03:51:32.787Z,100320.83
2019-05-07T03:56:35.290Z,100304.80
2019-05-07T04:01:39.130Z,100314.42
2019-05-07T04:06:43.547Z,100322.53
2019-05-07T04:11:47.206Z,100321.63
2019-05-07T04:16:53.399Z,100332.69
2019-05-07T04:21:56.067Z,100331.31
2019-05-07T04:27:12.952Z,100331.69
2019-05-07T04:32:17.335Z,100333.27
2019-05-07T04:37:23.781Z,100341.11
2019-05-07T04:42:26.213Z,100338.33
2019-05-07T04:47:38.020Z,100341.78
2019-05-07T04:52:36.693Z,100351.31
2019-05-07T04:57:40.242Z,100358.36
2019-05-07T05:02:48.313Z,100367.27
2019-05-07T05:07:53.393Z,100370.42
2019-05-07T05:12:57.216Z,100367.05
2019-05-07T05:18:02.618Z,100372.15
2019-05-07T05:23:16.434Z,100375.84
2019-05-07T05:28:21.839Z,100372.78
2019-05-07T05:33:25.273Z,100375.89
2019-05-07T05:38:29.022Z,100352.40
2019-05-07T05:43:34.146Z,100367.34
2019-05-07T05:48:37.718Z,100374.01
2019-05-07T05:53:59.339Z,100365.72
2019-05-07T05:59:04.466Z,100379.49
2019-05-07T06:04:15.856Z,100375.46
2019-05-07T06:09:23.853Z,100371.92
2019-05-07T06:14:33.070Z,100370.95
2019-05-07T06:19:38.342Z,100366.73
2019-05-07T06:24:49.446Z,100375.78
2019-05-07T06:29:53.013Z,100375.57
2019-05-07T06:34:56.828Z,100370.98
2019-05-07T06:40:02.634Z,100371.61
2019-05-07T06:45:14.823Z,100372.07
2019-05-07T07:46:29.299Z,100367.69
2019-05-07T07:51:41.563Z,100384.94
2019-05-07T07:56:56.792Z,100376.09
2019-05-07T08:02:08.205Z,100372.02
2019-05-07T08:07:12.502Z,100368.19
2019-05-07T08:12:16.245Z,100360.68
2019-05-07T08:17:22.154Z,100368.69
2019-05-07T08:22:25.092Z,100369.17
2019-05-07T08:27:28.674Z,100373.69
2019-05-07T08:32:43.095Z,100373.69
2019-05-07T08:37:46.751Z,100365.41
2019-05-07T08:42:52.364Z,100358.95
2019-05-07T08:47:57.231Z,100357.57
2019-05-07T08:53:02.823Z,100353.24
2019-05-07T08:58:06.108Z,100367.07
2019-05-07T09:03:20.131Z,100356.48
2019-05-07T09:08:14.987Z,100355.14
2019-05-07T09:13:18.535Z,100349.41
2019-05-07T09:18:22.872Z,100348.41
2019-05-07T09:23:26.576Z,100342.88
2019-05-07T09:28:32.658Z,100344.21
2019-05-07T09:33:37.890Z,100347.02
2019-05-07T09:38:43.045Z,100339.53
2019-05-07T09:43:46.757Z,100320.03
2019-05-07T09:48:52.283Z,100334.85
2019-05-07T09:53:55.599Z,100338.94
2019-05-07T09:58:59.173Z,100332.33
2019-05-07T10:04:02.785Z,100336.97
2019-05-07T10:09:06.722Z,100332.56
2019-05-07T10:14:13.339Z,100318.44
2019-05-07T10:19:16.881Z,100330.11
2019-05-07T10:24:22.210Z,100320.79
2019-05-07T10:29:25.786Z,100313.79
2019-05-07T10:34:29.349Z,100321.92
2019-05-07T10:39:33.092Z,100331.30
2019-05-07T10:44:38.230Z,100336.35
2019-05-07T10:49:43.386Z,100343.53
2019-05-07T10:54:59.482Z,100340.08
2019-05-07T10:59:52.461Z,100333.91
2019-05-07T11:04:56.044Z,100336.16
2019-05-07T11:10:01.814Z,100337.91
2019-05-07T11:15:06.561Z,100350.02
2019-05-07T11:20:12.161Z,100353.29
2019-05-07T11:25:15.986Z,100355.40
2019-05-07T11:30:19.996Z,100345.77
2019-05-07T11:35:23.558Z,100333.62
2019-05-07T11:40:27.152Z,100328.63
2019-05-07T11:45:32.274Z,100330.22
2019-05-07T11:51:01.500Z,100331.63
2019-05-07T11:55:59.419Z,100332.72
2019-05-07T12:01:04.764Z,100337.44
2019-05-07T12:06:08.357Z,100331.22
2019-05-07T12:11:12.044Z,100327.31
2019-05-07T12:16:15.608Z,100321.27
2019-05-07T12:21:21.911Z,100313.90
2019-05-07T12:26:24.493Z,100311.87
2019-05-07T12:31:41.713Z,100311.81
2019-05-07T12:36:45.261Z,100316.19
2019-05-07T12:41:48.886Z,100316.44
2019-05-07T12:46:52.617Z,100314.75
2019-05-07T12:52:02.278Z,100312.61
2019-05-07T12:57:06.066Z,100311.61
2019-05-07T13:02:33.891Z,100308.88
2019-05-07T13:07:24.022Z,100307.77
2019-05-07T13:12:27.591Z,100307.55
2019-05-07T13:17:31.199Z,100312.63
2019-05-07T13:22:34.968Z,100310.15
2019-05-07T13:27:40.250Z,100328.10
2019-05-07T13:32:45.013Z,100317.29
2019-05-07T13:38:02.817Z,100323.67
2019-05-07T13:43:11.880Z,100321.56
2019-05-07T13:48:22.368Z,100323.52
2019-05-07T13:53:25.703Z,100323.33
2019-05-07T13:58:29.495Z,100317.80
2019-05-07T14:03:33.398Z,100318.00
2019-05-07T14:08:38.512Z,100327.03
2019-05-07T14:13:43.635Z,100309.27
2019-05-07T14:18:47.335Z,100316.13
2019-05-07T14:23:52.150Z,100305.43
2019-05-07T14:28:55.825Z,100299.05
2019-05-07T14:34:13.207Z,100300.14
2019-05-07T14:39:16.765Z,100296.34
2019-05-07T14:44:22.211Z,100295.19
2019-05-07T14:49:25.647Z,100293.95
2019-05-07T14:54:29.231Z,100298.92
2019-05-07T14:59:32.782Z,100301.29
2019-05-07T15:04:36.362Z,100303.43
2019-05-07T15:09:42.428Z,100311.59
2019-05-07T15:14:46.109Z,100313.25
2019-05-07T15:19:52.055Z,100323.81
2019-05-07T15:24:54.996Z,100331.62
2019-05-07T15:29:58.557Z,100334.53
2019-05-07T15:35:02.373Z,100329.69
2019-05-07T15:40:07.422Z,100334.17
2019-05-07T15:45:12.538Z,100327.67
2019-05-07T15:50:16.368Z,100319.22
2019-05-07T15:55:19.939Z,100323.72
2019-05-07T16:00:27.836Z,100324.61
2019-05-07T16:05:32.064Z,100325.96
2019-05-07T16:10:35.702Z,100328.97
2019-05-07T16:15:39.270Z,100323.95
2019-05-07T16:20:43.044Z,100317.14
2019-05-07T16:25:46.623Z,100329.36
2019-05-07T16:30:52.062Z,100321.59
2019-05-07T16:35:55.532Z,100320.47
2019-05-07T16:40:59.187Z,100333.16
2019-05-07T16:46:02.814Z,100329.85
2019-05-07T16:51:06.356Z,100333.03
2019-05-07T16:56:12.228Z,100331.23
2019-05-07T17:01:16.563Z,100325.53
2019-05-07T17:06:24.755Z,100312.66
2019-05-07T17:11:25.442Z,100318.03
2019-05-07T17:16:28.991Z,100317.44
2019-05-07T17:21:32.660Z,100317.44
2019-05-07T17:26:36.527Z,100320.77
2019-05-07T17:31:42.268Z,100321.28
2019-05-07T17:36:45.528Z,100332.48
2019-05-07T17:41:51.749Z,100321.27
2019-05-07T17:46:54.750Z,100329.17
2019-05-07T17:51:58.352Z,100337.39
2019-05-07T17:57:02.129Z,100335.58
2019-05-07T18:02:16.421Z,100340.78
2019-05-07T18:07:19.997Z,100341.24
2019-05-07T18:12:23.588Z,100338.62
2019-05-07T18:17:33.589Z,100345.09
2019-05-07T18:22:37.006Z,100344.95
2019-05-07T18:27:42.080Z,100349.11
2019-05-07T18:32:53.343Z,100354.78
2019-05-07T18:37:56.963Z,100354.77
2019-05-07T18:43:02.961Z,100352.33
2019-05-07T18:48:05.978Z,100360.64
2019-05-07T18:53:12.208Z,100358.22
2019-05-07T18:58:19.423Z,100359.74
2019-05-07T19:03:25.352Z,100356.69
2019-05-07T19:08:28.561Z,100359.03
2019-05-07T19:13:32.703Z,100367.52
2019-05-07T19:18:36.370Z,100356.95
2019-05-07T19:23:42.210Z,100358.31
2019-05-07T19:28:45.328Z,100356.75
2019-05-07T19:33:48.990Z,100356.41
2019-05-07T19:38:52.763Z,100350.38
2019-05-07T19:43:56.341Z,100347.11
2019-05-07T19:48:59.921Z,100337.22
2019-05-07T19:54:03.890Z,100347.25
2019-05-07T19:59:07.475Z,100355.21
2019-05-07T20:04:13.223Z,100351.07
2019-05-07T20:09:17.942Z,100355.82
2019-05-07T20:14:22.339Z,100354.02
2019-05-07T20:19:26.151Z,100358.03
2019-05-07T20:24:29.719Z,100356.27
2019-05-07T20:29:33.292Z,100352.81
2019-05-07T20:34:36.867Z,100358.44
2019-05-07T20:39:42.218Z,100353.21
2019-05-07T20:44:46.318Z,100352.27
2019-05-07T20:49:49.983Z,100349.86
2019-05-07T20:54:55.218Z,100347.40
2019-05-07T20:59:58.768Z,100346.70
2019-05-07T21:05:02.994Z,100349.00
2019-05-07T21:10:06.728Z,100358.87
2019-05-07T21:15:12.262Z,100350.07
2019-05-07T21:20:15.962Z,100356.42
2019-05-07T21:25:19.866Z,100356.13
2019-05-07T21:30:23.406Z,100357.06
2019-05-07T21:35:27.067Z,100358.03
2019-05-07T21:40:32.100Z,100351.45
2019-05-07T21:45:35.772Z,100354.63
2019-05-07T21:50:40.662Z,100353.80
2019-05-07T21:56:02.152Z,100351.17
2019-05-07T22:01:07.368Z,100354.45
2019-05-07T22:06:12.863Z,100349.05
2019-05-07T22:11:16.298Z,100347.17
2019-05-07T22:16:21.998Z,100344.18
2019-05-07T22:21:25.225Z,100343.83
2019-05-07T22:26:28.793Z,100340.86
2019-05-07T22:31:33.970Z,100342.02
2019-05-07T22:36:37.791Z,100343.44
2019-05-07T22:41:42.506Z,100340.34
2019-05-07T22:46:46.245Z,100336.59
2019-05-07T22:51:54.625Z,100333.45
2019-05-07T22:56:58.476Z,100338.91
2019-05-07T23:02:03.126Z,100334.58
2019-05-07T23:07:06.940Z,100337.03
2019-05-07T23:12:12.422Z,100340.91
2019-05-07T23:17:16.099Z,100334.72
2019-05-07T23:22:19.949Z,100325.14
2019-05-07T23:27:23.721Z,100334.76
2019-05-07T23:32:27.305Z,100329.85
2019-05-07T23:37:32.952Z,100326.80
2019-05-07T23:42:37.807Z,100332.37
2019-05-07T23:47:44.480Z,100329.53
2019-05-07T23:52:46.709Z,100330.66
2019-05-07T23:57:52.397Z,100327.30
